Time;durP1;ratioP1;P1;durP2;ratioP2;P2;SDS_P1;SDS_P2;PMS_P1;PMS_P2;Temp;Humidity;BMP_temperature;BMP_pressure;BME280_temperature;BME280_humidity;BME280_pressure;Samples;Min_cycle;Max_cycle;Signal;HPM_P1;HPM_P2
2022/01/10 00:00:46;;;;;;;6.90;3.07;;;3.80;99.90;;;;;;5093080;28;20032;-84
2022/01/10 00:03:12;;;;;;;9.77;3.40;;;3.80;99.90;;;;;;5094066;28;20544;-84
2022/01/10 00:05:38;;;;;;;7.03;2.90;;;3.80;99.90;;;;;;5093221;28;20055;-84
2022/01/10 00:08:04;;;;;;;6.53;3.47;;;3.80;99.90;;;;;;5092742;28;20119;-84
2022/01/10 00:10:31;;;;;;;6.10;3.17;;;3.80;99.90;;;;;;5094102;28;20077;-84
2022/01/10 00:12:57;;;;;;;9.07;3.50;;;3.80;99.90;;;;;;5092425;28;20085;-84
2022/01/10 00:15:23;;;;;;;7.20;3.50;;;3.80;99.90;;;;;;5093082;28;20032;-84
2022/01/10 00:17:49;;;;;;;7.30;3.77;;;3.80;99.90;;;;;;5093191;28;20028;-83
2022/01/10 00:20:18;;;;;;;6.93;3.60;;;3.80;99.90;;;;;;5092832;28;20118;-84
2022/01/10 00:22:49;;;;;;;7.17;3.60;;;3.80;99.90;;;;;;5093326;28;20028;-84
2022/01/10 00:25:20;;;;;;;9.48;4.07;;;3.70;99.90;;;;;;5092153;28;20048;-84
2022/01/10 00:27:47;;;;;;;7.00;3.65;;;3.80;99.90;;;;;;5093004;28;20481;-84
2022/01/10 00:30:14;;;;;;;13.07;4.10;;;3.80;99.90;;;;;;5092416;28;20192;-85
2022/01/10 00:32:41;;;;;;;8.73;4.13;;;3.80;99.90;;;;;;5092986;28;20028;-84
2022/01/10 00:35:08;;;;;;;7.97;3.87;;;3.80;99.90;;;;;;5093438;28;20113;-85
2022/01/10 00:37:34;;;;;;;6.80;3.80;;;3.80;99.90;;;;;;5092910;28;20115;-84
2022/01/10 00:40:03;;;;;;;5.40;3.60;;;3.70;99.90;;;;;;5093438;28;20117;-84
2022/01/10 00:42:29;;;;;;;7.43;3.20;;;3.70;99.90;;;;;;5093058;28;20040;-84
2022/01/10 00:44:57;;;;;;;6.53;3.60;;;3.70;99.90;;;;;;5093437;28;20024;-84
2022/01/10 00:47:23;;;;;;;7.10;3.57;;;3.80;99.90;;;;;;5093985;28;20457;-84
2022/01/10 00:49:49;;;;;;;6.73;3.50;;;3.80;99.90;;;;;;5092640;28;20035;-84
2022/01/10 00:52:14;;;;;;;8.47;3.80;;;3.70;99.90;;;;;;5092363;28;20630;-84
2022/01/10 00:54:40;;;;;;;11.60;3.60;;;3.70;99.90;;;;;;5092952;28;20031;-83
2022/01/10 00:57:06;;;;;;;11.10;4.07;;;3.60;99.90;;;;;;5093895;28;20460;-84
2022/01/10 00:59:32;;;;;;;8.90;4.17;;;3.60;99.90;;;;;;5097753;28;20038;-84
2022/01/10 01:01:58;;;;;;;8.67;3.87;;;3.60;99.90;;;;;;5096028;28;20112;-83
2022/01/10 01:04:24;;;;;;;7.83;4.00;;;3.70;99.90;;;;;;5097689;28;20042;-84
2022/01/10 01:06:50;;;;;;;8.40;4.37;;;3.60;99.90;;;;;;5097584;28;20020;-84
2022/01/10 01:09:20;;;;;;;8.73;4.33;;;3.60;99.90;;;;;;5096255;28;20157;-84
2022/01/10 01:12:08;;;;;;;8.17;4.40;;;3.60;99.90;;;;;;5096780;28;20525;-84
2022/01/10 01:17:13;;;;;;;8.77;4.10;;;3.70;99.90;;;;;;5096845;28;20028;-84
2022/01/10 01:25:12;;;;;;;10.07;4.80;;;3.70;99.90;;;;;;5108037;28;20565;-84
2022/01/10 01:27:39;;;;;;;9.47;4.90;;;3.60;99.90;;;;;;5099489;28;20028;-84
2022/01/10 01:30:06;;;;;;;9.63;4.80;;;3.60;99.90;;;;;;5098769;28;20027;-84
2022/01/10 01:32:32;;;;;;;10.23;4.10;;;3.60;99.90;;;;;;5117233;28;20032;-84
2022/01/10 01:35:03;;;;;;;8.23;4.90;;;3.60;99.90;;;;;;5098637;28;20020;-83
2022/01/10 01:37:29;;;;;;;13.65;4.60;;;3.60;99.90;;;;;;5099487;28;20075;-84
2022/01/10 01:39:56;;;;;;;12.93;5.43;;;3.60;99.90;;;;;;5099469;28;20031;-84
2022/01/10 01:44:56;;;;;;;9.47;4.93;;;3.60;99.90;;;;;;5117285;28;20028;-84
2022/01/10 01:47:21;;;;;;;8.67;5.07;;;3.60;99.90;;;;;;5098603;28;20127;-84
2022/01/10 01:49:47;;;;;;;11.10;5.50;;;3.60;99.90;;;;;;5098951;28;20023;-84
2022/01/10 01:52:13;;;;;;;15.33;5.77;;;3.70;99.90;;;;;;5098725;28;20031;-84
2022/01/10 01:54:38;;;;;;;8.30;4.77;;;3.70;99.90;;;;;;5117389;28;20023;-84
2022/01/10 01:57:05;;;;;;;9.37;5.17;;;3.70;99.90;;;;;;5098758;28;20383;-84
2022/01/10 01:59:33;;;;;;;11.90;5.17;;;3.70;99.90;;;;;;5098823;28;20028;-84
2022/01/10 02:01:58;;;;;;;9.23;5.43;;;3.70;99.90;;;;;;5116530;28;20035;-82
2022/01/10 02:04:24;;;;;;;11.97;5.60;;;3.70;99.90;;;;;;5116412;28;20065;-84
2022/01/10 02:06:49;;;;;;;10.50;5.40;;;3.70;99.90;;;;;;5116792;28;20026;-84
2022/01/10 02:09:16;;;;;;;13.87;5.47;;;3.70;99.90;;;;;;5116107;28;20024;-84
2022/01/10 02:11:42;;;;;;;12.13;5.50;;;3.70;99.90;;;;;;5116692;28;20051;-84
2022/01/10 02:14:08;;;;;;;12.07;5.70;;;3.70;99.90;;;;;;5098244;28;20469;-84
2022/01/10 02:16:46;;;;;;;12.57;5.70;;;3.70;99.90;;;;;;5098498;28;20028;-84
2022/01/10 02:19:12;;;;;;;9.60;5.27;;;3.70;99.90;;;;;;5098102;28;20077;-84
2022/01/10 02:21:38;;;;;;;8.63;4.77;;;3.60;99.90;;;;;;5098558;28;20031;-84
2022/01/10 02:24:06;;;;;;;14.13;6.40;;;3.70;99.90;;;;;;5097603;28;20023;-84
2022/01/10 02:26:32;;;;;;;10.17;5.70;;;3.70;99.90;;;;;;5098526;28;20491;-84
2022/01/10 02:28:58;;;;;;;10.17;5.80;;;3.70;99.90;;;;;;5116087;28;20028;-84
2022/01/10 02:31:24;;;;;;;9.10;5.63;;;3.60;99.90;;;;;;5097218;28;20027;-84
2022/01/10 02:33:51;;;;;;;11.27;5.93;;;3.60;99.90;;;;;;5098540;28;20023;-84
2022/01/10 02:36:35;;;;;;;10.67;5.70;;;3.70;99.90;;;;;;5097780;28;20024;-84
2022/01/10 02:39:08;;;;;;;11.87;5.93;;;3.70;99.90;;;;;;5097670;28;20027;-82
2022/01/10 02:41:37;;;;;;;11.67;6.63;;;3.70;99.90;;;;;;5098058;28;20024;-84
2022/01/10 02:44:07;;;;;;;14.43;6.77;;;3.70;99.90;;;;;;5097368;28;20027;-83
2022/01/10 02:46:35;;;;;;;12.37;6.37;;;3.60;99.90;;;;;;5098266;28;20038;-84
2022/01/10 02:49:06;;;;;;;10.67;6.27;;;3.70;99.90;;;;;;5116011;28;20027;-84
2022/01/10 02:51:32;;;;;;;13.23;6.07;;;3.60;99.90;;;;;;5098097;28;20070;-84
2022/01/10 02:53:57;;;;;;;10.20;6.17;;;3.60;99.90;;;;;;5115975;28;20035;-84
2022/01/10 02:56:23;;;;;;;12.83;6.90;;;3.60;99.90;;;;;;5097372;28;20019;-84
2022/01/10 02:58:49;;;;;;;10.93;6.40;;;3.60;99.90;;;;;;5097961;28;20532;-84
2022/01/10 03:01:14;;;;;;;11.67;6.13;;;3.60;99.90;;;;;;5097401;28;20085;-84
2022/01/10 03:03:40;;;;;;;11.10;6.33;;;3.60;99.90;;;;;;5115698;28;20048;-84
2022/01/10 03:06:06;;;;;;;11.50;6.97;;;3.60;99.90;;;;;;5097391;28;20020;-83
2022/01/10 03:08:33;;;;;;;10.43;6.30;;;3.60;99.90;;;;;;5097652;28;20469;-84
2022/01/10 03:10:59;;;;;;;13.63;7.13;;;3.60;99.90;;;;;;5097443;28;20080;-84
2022/01/10 03:13:24;;;;;;;9.03;6.20;;;3.50;99.90;;;;;;5115028;28;20036;-84
2022/01/10 03:15:50;;;;;;;14.17;7.10;;;3.60;99.90;;;;;;5097125;28;20031;-84
2022/01/10 03:18:16;;;;;;;11.67;6.90;;;3.60;99.90;;;;;;5097015;28;20028;-84
2022/01/10 03:20:41;;;;;;;13.27;7.17;;;3.60;99.90;;;;;;5097134;28;20097;-84
2022/01/10 03:23:07;;;;;;;13.77;7.27;;;3.60;99.90;;;;;;5096988;28;20024;-83
2022/01/10 03:25:33;;;;;;;12.60;6.43;;;3.50;99.90;;;;;;5115297;28;20469;-84
2022/01/10 03:27:58;;;;;;;12.83;6.27;;;3.60;99.90;;;;;;5115331;28;20441;-84
2022/01/10 03:30:24;;;;;;;12.03;5.80;;;3.60;99.90;;;;;;5096451;28;20032;-84
2022/01/10 03:32:51;;;;;;;13.33;7.00;;;3.60;99.90;;;;;;5097226;28;20073;-84
2022/01/10 03:35:17;;;;;;;14.83;6.27;;;3.60;99.90;;;;;;5096612;28;20031;-84
2022/01/10 03:37:43;;;;;;;11.90;6.23;;;3.60;99.90;;;;;;5097121;28;20030;-84
2022/01/10 03:40:09;;;;;;;12.63;6.33;;;3.60;99.90;;;;;;5096377;28;20050;-84
2022/01/10 03:42:35;;;;;;;12.50;6.47;;;3.60;99.90;;;;;;5096652;28;20023;-84
2022/01/10 03:45:03;;;;;;;11.47;6.37;;;3.50;99.90;;;;;;5097347;28;20035;-84
2022/01/10 03:47:29;;;;;;;10.27;6.40;;;3.60;99.90;;;;;;5114760;28;20031;-84
2022/01/10 03:49:55;;;;;;;11.43;6.17;;;3.60;99.90;;;;;;5096835;28;20024;-84
2022/01/10 03:52:22;;;;;;;13.47;6.30;;;3.60;99.90;;;;;;5096440;28;20030;-84
2022/01/10 03:54:48;;;;;;;11.60;6.43;;;3.60;99.90;;;;;;5096817;28;20024;-84
2022/01/10 03:57:13;;;;;;;10.83;6.00;;;3.60;99.90;;;;;;5096249;28;20024;-84
2022/01/10 03:59:40;;;;;;;12.40;6.57;;;3.50;99.90;;;;;;5096609;28;20019;-84
2022/01/10 04:02:06;;;;;;;10.47;5.67;;;3.60;99.90;;;;;;5096461;28;20032;-82
2022/01/10 04:04:35;;;;;;;14.67;6.33;;;3.60;99.90;;;;;;5096738;28;20051;-84
2022/01/10 04:07:00;;;;;;;15.80;6.93;;;3.70;99.90;;;;;;5114662;28;20081;-84
2022/01/10 04:09:26;;;;;;;12.33;6.37;;;3.60;99.90;;;;;;5096472;28;20024;-84
2022/01/10 04:11:52;;;;;;;11.27;6.30;;;3.50;99.90;;;;;;5096638;28;20040;-84
2022/01/10 04:14:17;;;;;;;14.37;6.63;;;3.60;99.90;;;;;;5096218;28;20495;-84
2022/01/10 04:16:43;;;;;;;13.77;6.43;;;3.50;99.90;;;;;;5114475;28;20392;-85
2022/01/10 04:19:08;;;;;;;10.57;6.47;;;3.50;99.90;;;;;;5095984;28;20024;-83
2022/01/10 04:21:34;;;;;;;13.07;7.10;;;3.50;99.90;;;;;;5096366;28;20031;-84
2022/01/10 04:24:00;;;;;;;11.30;6.60;;;3.60;99.90;;;;;;5096240;28;20028;-84
2022/01/10 04:26:25;;;;;;;11.53;7.23;;;3.60;99.90;;;;;;5114171;28;20350;-84
2022/01/10 04:28:51;;;;;;;11.37;6.57;;;3.70;99.90;;;;;;5096264;28;20031;-84
2022/01/10 04:31:17;;;;;;;13.10;6.97;;;3.60;99.90;;;;;;5096519;28;20061;-84
2022/01/10 04:33:43;;;;;;;14.67;7.30;;;3.60;99.90;;;;;;5100617;28;20033;-84
2022/01/10 04:36:08;;;;;;;11.13;6.57;;;3.60;99.90;;;;;;5100076;28;20377;-83
2022/01/10 04:38:35;;;;;;;12.53;6.60;;;3.60;99.90;;;;;;5100482;28;20092;-84
2022/01/10 04:41:01;;;;;;;17.67;7.00;;;3.50;99.90;;;;;;5118166;28;20410;-84
2022/01/10 04:43:27;;;;;;;14.33;7.50;;;3.50;99.90;;;;;;5099883;28;20495;-84
2022/01/10 04:45:53;;;;;;;13.23;7.10;;;3.60;99.90;;;;;;5100102;28;20032;-84
2022/01/10 04:48:19;;;;;;;14.73;7.43;;;3.60;99.90;;;;;;5099874;28;20020;-84
2022/01/10 04:53:30;;;;;;;13.47;7.20;;;3.60;99.90;;;;;;5117764;28;20518;-84
2022/01/10 04:55:56;;;;;;;17.97;8.40;;;3.60;99.90;;;;;;5100299;28;20024;-84
2022/01/10 04:58:22;;;;;;;16.67;7.90;;;3.60;99.90;;;;;;5099528;28;20051;-84
2022/01/10 05:00:51;;;;;;;13.53;7.83;;;3.60;99.90;;;;;;5099892;28;20122;-84
2022/01/10 05:03:17;;;;;;;14.43;7.40;;;3.60;99.90;;;;;;5099377;28;20024;-83
2022/01/10 05:05:43;;;;;;;15.43;7.87;;;3.60;99.90;;;;;;5117867;28;20149;-84
2022/01/10 05:08:10;;;;;;;14.70;7.63;;;3.60;99.90;;;;;;5099464;28;20511;-84
2022/01/10 05:10:35;;;;;;;15.13;8.07;;;3.60;99.90;;;;;;5099759;28;20049;-84
2022/01/10 05:13:01;;;;;;;15.40;8.37;;;3.60;99.90;;;;;;5117815;28;20448;-84
2022/01/10 05:15:27;;;;;;;14.40;8.33;;;3.60;99.90;;;;;;5099352;28;20031;-84
2022/01/10 05:17:52;;;;;;;14.00;7.70;;;3.70;99.90;;;;;;5099728;28;20047;-85
2022/01/10 05:20:18;;;;;;;15.43;7.80;;;3.70;99.90;;;;;;5099049;28;20027;-84
2022/01/10 05:22:44;;;;;;;12.93;7.20;;;3.60;99.90;;;;;;5099495;28;20032;-84
2022/01/10 05:25:09;;;;;;;14.53;7.03;;;3.60;99.90;;;;;;5099404;28;20550;-85
2022/01/10 05:27:35;;;;;;;11.57;7.20;;;3.70;99.90;;;;;;5098987;28;20489;-84
2022/01/10 05:30:01;;;;;;;12.17;7.33;;;3.70;99.90;;;;;;5099767;28;20031;-84
2022/01/10 05:32:27;;;;;;;18.13;7.67;;;3.70;99.90;;;;;;5116843;28;20031;-84
2022/01/10 05:34:52;;;;;;;16.17;7.93;;;3.70;99.90;;;;;;5117488;28;20032;-84
2022/01/10 05:37:18;;;;;;;16.03;7.33;;;3.80;99.90;;;;;;5098913;28;20464;-84
2022/01/10 05:39:43;;;;;;;16.43;7.17;;;3.60;99.90;;;;;;5099178;28;20101;-84
2022/01/10 05:42:09;;;;;;;17.97;8.03;;;3.70;99.90;;;;;;5116677;28;20460;-84
2022/01/10 05:44:34;;;;;;;14.30;8.00;;;3.60;99.90;;;;;;5116852;28;20027;-84
2022/01/10 05:47:01;;;;;;;17.23;8.37;;;3.50;99.90;;;;;;5099229;28;20024;-84
2022/01/10 05:49:33;;;;;;;15.77;8.07;;;3.60;99.90;;;;;;5098838;28;20464;-84
2022/01/10 05:51:59;;;;;;;19.77;9.00;;;3.70;99.90;;;;;;5098956;28;20027;-84
2022/01/10 05:54:25;;;;;;;15.53;8.13;;;3.70;99.90;;;;;;5098571;28;20043;-84
2022/01/10 05:56:52;;;;;;;16.00;7.60;;;3.80;99.90;;;;;;5116597;28;20019;-84
2022/01/10 05:59:18;;;;;;;17.00;7.53;;;3.80;99.90;;;;;;5098317;28;20106;-84
2022/01/10 06:01:43;;;;;;;14.87;7.00;;;3.80;99.90;;;;;;5098691;28;20131;-84
2022/01/10 06:04:09;;;;;;;17.30;7.20;;;3.80;99.90;;;;;;5116817;28;20509;-84
2022/01/10 06:06:35;;;;;;;14.17;6.87;;;3.80;99.90;;;;;;5098428;28;20023;-84
2022/01/10 06:09:01;;;;;;;13.30;6.90;;;3.70;99.90;;;;;;5098406;28;20065;-84
2022/01/10 06:11:26;;;;;;;13.80;6.47;;;3.70;99.90;;;;;;5097999;28;20039;-84
2022/01/10 06:13:52;;;;;;;13.90;6.77;;;3.80;99.90;;;;;;5116690;28;20060;-84
2022/01/10 06:16:18;;;;;;;12.67;6.33;;;3.70;99.90;;;;;;5098016;28;20429;-84
2022/01/10 06:18:43;;;;;;;11.57;5.90;;;3.70;99.90;;;;;;5116328;28;20035;-84
2022/01/10 06:21:09;;;;;;;14.87;6.17;;;3.70;99.90;;;;;;5098157;28;20038;-84
2022/01/10 06:23:34;;;;;;;15.00;6.20;;;3.80;99.90;;;;;;5115760;28;20066;-84
2022/01/10 06:26:01;;;;;;;14.90;6.97;;;3.80;99.90;;;;;;5094738;28;20074;-84
2022/01/10 06:28:26;;;;;;;10.87;5.87;;;3.70;99.90;;;;;;5094542;28;20034;-84
2022/01/10 06:30:52;;;;;;;12.73;5.67;;;3.70;99.90;;;;;;5094786;28;20028;-84
2022/01/10 06:33:17;;;;;;;12.73;5.93;;;3.60;99.90;;;;;;5094269;28;20115;-84
2022/01/10 06:35:43;;;;;;;11.90;6.00;;;3.60;99.90;;;;;;5094649;28;20059;-84
2022/01/10 06:38:09;;;;;;;12.73;5.93;;;3.60;99.90;;;;;;5094690;28;20431;-84
2022/01/10 06:40:37;;;;;;;18.17;6.47;;;3.60;99.90;;;;;;5094758;28;20103;-84
2022/01/10 06:43:04;;;;;;;14.43;6.80;;;3.70;99.90;;;;;;5094401;28;20032;-84
2022/01/10 06:45:30;;;;;;;13.30;5.70;;;3.60;99.90;;;;;;5094252;28;20056;-84
2022/01/10 06:47:56;;;;;;;11.93;6.60;;;3.60;99.90;;;;;;5094344;28;20020;-84
2022/01/10 06:50:22;;;;;;;15.43;6.33;;;3.60;99.90;;;;;;5094193;28;20071;-84
2022/01/10 06:52:49;;;;;;;19.07;6.83;;;3.60;99.90;;;;;;5094415;28;20031;-84
2022/01/10 06:55:14;;;;;;;14.00;6.93;;;3.60;99.90;;;;;;5093564;28;20055;-84
2022/01/10 06:57:40;;;;;;;10.07;6.07;;;3.60;99.90;;;;;;5094064;28;20024;-84
2022/01/10 07:00:07;;;;;;;14.03;6.83;;;3.60;99.90;;;;;;5095740;28;20377;-84
2022/01/10 07:02:32;;;;;;;13.07;6.63;;;3.50;99.90;;;;;;5094605;28;20036;-84
2022/01/10 07:04:58;;;;;;;11.43;5.90;;;3.50;99.90;;;;;;5094047;28;20119;-85
2022/01/10 07:07:24;;;;;;;13.87;6.27;;;3.60;99.90;;;;;;5093524;28;20530;-84
2022/01/10 07:09:49;;;;;;;14.37;6.40;;;3.50;99.90;;;;;;5093951;28;20024;-84
2022/01/10 07:12:15;;;;;;;11.13;5.67;;;3.60;99.90;;;;;;5094109;28;20028;-84
2022/01/10 07:14:41;;;;;;;12.77;5.40;;;3.60;99.90;;;;;;5093444;28;20040;-84
2022/01/10 07:17:06;;;;;;;12.73;6.60;;;3.60;99.90;;;;;;5093868;28;20110;-84
2022/01/10 07:19:32;;;;;;;13.27;5.70;;;3.60;99.90;;;;;;5093435;28;20062;-84
2022/01/10 07:21:58;;;;;;;14.93;6.03;;;3.70;99.90;;;;;;5093442;28;20113;-84
2022/01/10 07:24:23;;;;;;;11.43;5.53;;;3.70;99.90;;;;;;5093011;28;20048;-84
2022/01/10 07:26:50;;;;;;;14.67;6.50;;;3.70;99.90;;;;;;5093690;28;20020;-84
2022/01/10 07:29:16;;;;;;;16.07;6.50;;;3.70;99.90;;;;;;5093638;28;20020;-84
2022/01/10 07:31:42;;;;;;;9.77;5.10;;;3.70;99.90;;;;;;5094223;28;20084;-84
2022/01/10 07:34:11;;;;;;;8.67;4.97;;;3.70;99.90;;;;;;5093767;28;20475;-84
2022/01/10 07:36:37;;;;;;;12.70;5.23;;;3.70;99.90;;;;;;5093210;28;20028;-83
2022/01/10 07:39:03;;;;;;;12.77;5.67;;;3.60;99.90;;;;;;5093769;28;20047;-84
2022/01/10 07:41:29;;;;;;;12.00;5.57;;;3.70;99.90;;;;;;5092923;28;20090;-85
2022/01/10 07:43:56;;;;;;;14.23;5.43;;;3.70;99.90;;;;;;5094548;28;20053;-84
2022/01/10 07:46:22;;;;;;;9.33;5.67;;;3.80;99.90;;;;;;5093002;28;20029;-84
2022/01/10 07:48:48;;;;;;;11.77;5.50;;;3.80;99.90;;;;;;5094304;28;20078;-84
2022/01/10 07:51:14;;;;;;;12.10;5.60;;;3.80;99.90;;;;;;5094315;28;20036;-84
2022/01/10 07:53:41;;;;;;;12.57;5.70;;;3.80;99.90;;;;;;5093039;28;20077;-84
2022/01/10 07:56:07;;;;;;;12.60;6.57;;;3.90;99.90;;;;;;5093138;28;20030;-85
2022/01/10 07:58:34;;;;;;;10.90;6.03;;;3.90;99.90;;;;;;5093060;28;20031;-84
2022/01/10 08:01:00;;;;;;;18.40;7.07;;;3.90;99.90;;;;;;5093353;28;20070;-85
2022/01/10 08:03:26;;;;;;;16.33;7.50;;;3.90;99.90;;;;;;5093894;28;20024;-84
2022/01/10 08:05:52;;;;;;;14.30;7.03;;;3.80;99.90;;;;;;5093126;28;20031;-85
2022/01/10 08:08:18;;;;;;;17.97;7.07;;;3.90;99.90;;;;;;5094178;28;20028;-84
2022/01/10 08:10:43;;;;;;;16.13;6.93;;;3.90;99.90;;;;;;5092928;28;20488;-84
2022/01/10 08:13:09;;;;;;;16.73;7.07;;;3.90;99.90;;;;;;5092919;28;20074;-84
2022/01/10 08:15:35;;;;;;;19.73;7.90;;;3.90;99.90;;;;;;5092586;28;20029;-84
2022/01/10 08:18:02;;;;;;;17.50;8.73;;;3.90;99.90;;;;;;5093066;28;20035;-84
2022/01/10 08:20:27;;;;;;;20.17;8.50;;;3.90;99.90;;;;;;5093464;28;20055;-84
2022/01/10 08:22:53;;;;;;;14.47;6.57;;;3.80;99.90;;;;;;5092935;28;20052;-84
2022/01/10 08:25:19;;;;;;;12.67;6.03;;;3.80;99.90;;;;;;5092931;28;20055;-84
2022/01/10 08:27:45;;;;;;;15.20;7.00;;;3.80;99.90;;;;;;5092469;28;20050;-85
2022/01/10 08:30:10;;;;;;;14.53;6.70;;;3.80;99.90;;;;;;5092895;28;20024;-84
2022/01/10 08:32:37;;;;;;;12.73;5.80;;;3.80;99.90;;;;;;5092408;28;20028;-82
2022/01/10 08:35:03;;;;;;;8.37;4.60;;;3.80;99.90;;;;;;5093791;28;20503;-83
2022/01/10 08:37:29;;;;;;;9.00;3.63;;;3.80;99.90;;;;;;5092226;28;20059;-82
2022/01/10 08:39:55;;;;;;;7.93;3.43;;;3.90;99.90;;;;;;5093895;28;20065;-83
2022/01/10 08:42:23;;;;;;;7.00;3.87;;;3.90;99.90;;;;;;5092633;28;20410;-83
2022/01/10 08:44:49;;;;;;;31.47;13.13;;;3.90;99.90;;;;;;5093659;28;20028;-82
2022/01/10 08:47:15;;;;;;;13.80;6.63;;;3.90;99.90;;;;;;5092867;28;20031;-85
2022/01/10 08:49:41;;;;;;;9.33;4.30;;;3.90;99.90;;;;;;5092419;28;20081;-85
2022/01/10 08:52:07;;;;;;;13.93;4.20;;;3.90;99.90;;;;;;5092619;28;20032;-85
2022/01/10 08:54:34;;;;;;;14.73;5.23;;;4.00;99.90;;;;;;5093163;28;20027;-84
2022/01/10 08:57:01;;;;;;;11.47;5.00;;;4.00;99.90;;;;;;5093554;28;20020;-85
2022/01/10 08:59:29;;;;;;;13.63;4.73;;;3.90;99.90;;;;;;5092318;28;20052;-84
2022/01/10 09:01:56;;;;;;;10.33;3.90;;;3.90;99.90;;;;;;5092676;28;20064;-85
2022/01/10 09:04:22;;;;;;;9.73;4.43;;;3.90;99.90;;;;;;5093606;28;20024;-84
2022/01/10 09:06:49;;;;;;;10.70;4.23;;;3.90;99.90;;;;;;5092142;28;20050;-85
2022/01/10 09:09:16;;;;;;;11.67;4.60;;;3.90;99.90;;;;;;5092823;28;20024;-84
2022/01/10 09:11:42;;;;;;;12.87;5.60;;;3.90;99.90;;;;;;5092152;28;20036;-85
2022/01/10 09:14:09;;;;;;;10.53;4.93;;;4.00;99.90;;;;;;5092678;28;20028;-85
2022/01/10 09:16:36;;;;;;;10.17;5.43;;;4.00;99.90;;;;;;5093082;28;20029;-84
2022/01/10 09:19:02;;;;;;;16.20;6.17;;;4.10;99.90;;;;;;5095384;28;20024;-84
2022/01/10 09:21:27;;;;;;;14.73;5.93;;;4.10;99.90;;;;;;5095511;28;20495;-83
2022/01/10 09:23:53;;;;;;;10.53;5.53;;;4.10;99.90;;;;;;5096727;28;20020;-84
2022/01/10 09:26:19;;;;;;;11.57;5.60;;;4.20;99.90;;;;;;5099574;28;20024;-85
2022/01/10 09:28:45;;;;;;;11.13;5.77;;;4.10;99.90;;;;;;5098814;28;20160;-84
2022/01/10 09:31:12;;;;;;;12.07;5.57;;;4.20;99.90;;;;;;5099983;28;20384;-85
2022/01/10 09:33:38;;;;;;;10.77;5.60;;;4.20;99.90;;;;;;5116991;28;20476;-86
2022/01/10 09:36:04;;;;;;;12.60;5.80;;;4.20;99.90;;;;;;5099540;28;20047;-84
2022/01/10 09:38:30;;;;;;;11.90;5.70;;;4.20;99.90;;;;;;5098877;28;20077;-84
2022/01/10 09:40:56;;;;;;;13.77;6.70;;;4.20;99.90;;;;;;5099108;28;20028;-85
2022/01/10 09:43:22;;;;;;;8.60;4.20;;;4.20;99.90;;;;;;5099388;28;20039;-85
2022/01/10 09:45:48;;;;;;;10.77;4.10;;;4.20;99.90;;;;;;5098731;28;20042;-84
2022/01/10 09:48:14;;;;;;;8.93;4.13;;;4.10;99.90;;;;;;5099350;28;20118;-85
2022/01/10 09:50:40;;;;;;;12.77;5.00;;;4.10;99.90;;;;;;5098542;28;20077;-85
2022/01/10 09:53:07;;;;;;;9.93;4.30;;;4.20;99.90;;;;;;5117311;28;20369;-84
2022/01/10 09:55:34;;;;;;;10.27;4.33;;;4.10;99.90;;;;;;5098761;28;20387;-84
2022/01/10 09:58:00;;;;;;;9.93;4.30;;;4.20;99.90;;;;;;5099224;28;20037;-84
2022/01/10 10:00:26;;;;;;;6.80;3.90;;;4.20;99.90;;;;;;5116662;28;20021;-84
2022/01/10 10:02:52;;;;;;;8.23;4.07;;;4.20;99.90;;;;;;5098423;28;20040;-84
2022/01/10 10:05:19;;;;;;;11.07;4.60;;;4.20;99.90;;;;;;5116864;28;20028;-85
2022/01/10 10:07:45;;;;;;;12.27;5.23;;;4.20;99.90;;;;;;5116326;28;20103;-85
2022/01/10 10:10:12;;;;;;;10.50;4.73;;;4.10;99.90;;;;;;5098591;28;20187;-85
2022/01/10 10:12:47;;;;;;;12.20;4.73;;;4.20;99.90;;;;;;5097918;28;20114;-84
2022/01/10 10:15:16;;;;;;;11.03;4.90;;;4.20;99.90;;;;;;5116500;28;20027;-85
2022/01/10 10:17:43;;;;;;;12.73;3.97;;;4.20;99.90;;;;;;5098164;28;20024;-85
2022/01/10 10:20:22;;;;;;;12.57;4.53;;;4.30;99.90;;;;;;5098745;28;20122;-85
2022/01/10 10:22:50;;;;;;;15.13;5.00;;;4.30;99.90;;;;;;5098083;28;20257;-85
2022/01/10 10:25:17;;;;;;;10.70;4.73;;;4.30;99.90;;;;;;5094848;28;20476;-85
2022/01/10 10:27:45;;;;;;;8.93;4.63;;;4.40;99.90;;;;;;5094370;28;20028;-85
2022/01/10 10:30:15;;;;;;;10.57;5.13;;;4.50;99.90;;;;;;5093714;28;20028;-85
2022/01/10 10:32:41;;;;;;;10.30;4.10;;;4.50;99.90;;;;;;5094342;28;20035;-84
2022/01/10 10:35:08;;;;;;;13.07;4.33;;;4.50;99.90;;;;;;5094807;28;20028;-85
2022/01/10 10:37:40;;;;;;;11.57;4.60;;;4.60;99.90;;;;;;5094170;28;20111;-84
2022/01/10 10:40:09;;;;;;;13.95;4.78;;;4.60;99.90;;;;;;5094770;28;20071;-85
2022/01/10 10:42:39;;;;;;;8.83;4.03;;;4.60;99.90;;;;;;5094136;28;20044;-85
2022/01/10 10:45:10;;;;;;;17.93;5.33;;;4.60;99.90;;;;;;5095445;28;20485;-85
2022/01/10 10:47:39;;;;;;;12.88;5.20;;;4.60;99.90;;;;;;5094271;28;20024;-84
2022/01/10 10:50:07;;;;;;;13.60;5.30;;;4.60;99.90;;;;;;5095394;28;20039;-85
2022/01/10 10:52:38;;;;;;;13.53;6.07;;;4.70;99.90;;;;;;5093957;28;20040;-84
2022/01/10 10:55:18;;;;;;;16.33;5.43;;;4.70;99.90;;;;;;5094291;28;20028;-85
2022/01/10 10:57:45;;;;;;;12.13;5.23;;;4.70;99.90;;;;;;5094905;28;20496;-85
2022/01/10 11:00:15;;;;;;;15.23;5.43;;;4.70;99.90;;;;;;5094544;28;20024;-85
2022/01/10 11:02:41;;;;;;;13.63;5.27;;;4.70;99.90;;;;;;5093791;28;20040;-85
2022/01/10 11:05:08;;;;;;;14.70;5.40;;;4.80;99.90;;;;;;5095240;28;20047;-85
2022/01/10 11:07:35;;;;;;;13.80;5.00;;;4.90;99.90;;;;;;5093822;28;20028;-84
2022/01/10 11:10:05;;;;;;;13.83;5.63;;;4.90;99.90;;;;;;5094402;28;20023;-85
2022/01/10 11:12:34;;;;;;;12.13;5.40;;;4.90;99.90;;;;;;5095177;28;20074;-83
2022/01/10 11:15:00;;;;;;;16.00;5.33;;;4.90;99.90;;;;;;5094324;28;20028;-85
2022/01/10 11:17:27;;;;;;;15.23;5.10;;;4.90;99.90;;;;;;5093878;28;20072;-85
2022/01/10 11:20:14;;;;;;;11.07;5.40;;;4.90;99.90;;;;;;5093658;28;20074;-84
2022/01/10 11:22:41;;;;;;;11.93;5.63;;;5.00;99.90;;;;;;5093594;28;20135;-84
2022/01/10 11:25:40;;;;;;;14.13;5.77;;;5.00;99.90;;;;;;5105568;28;20103;-84
2022/01/10 11:28:11;;;;;;;10.90;5.00;;;5.10;99.90;;;;;;5043006;28;20035;-84
2022/01/10 11:30:45;;;;;;;10.43;4.80;;;5.10;99.90;;;;;;5096917;28;20024;-85
2022/01/10 11:33:15;;;;;;;12.47;5.50;;;5.10;99.90;;;;;;5097334;28;20062;-85
2022/01/10 11:35:43;;;;;;;11.43;5.00;;;5.20;99.90;;;;;;5096626;28;20031;-85
2022/01/10 11:38:29;;;;;;;13.23;5.10;;;5.20;99.90;;;;;;5097212;28;20024;-85
2022/01/10 11:41:03;;;;;;;11.63;4.87;;;5.20;99.90;;;;;;5113961;28;20028;-85
2022/01/10 11:43:34;;;;;;;11.43;4.80;;;5.30;99.90;;;;;;5096896;28;20123;-85
2022/01/10 11:46:23;;;;;;;13.23;5.67;;;5.40;99.90;;;;;;5115206;28;20089;-85
2022/01/10 11:49:25;;;;;;;11.70;4.53;;;5.40;99.90;;;;;;5114535;28;20019;-85
2022/01/10 11:51:51;;;;;;;11.52;4.65;;;5.50;99.90;;;;;;5059320;28;20063;-84
2022/01/10 11:54:22;;;;;;;18.37;5.87;;;5.60;99.90;;;;;;5096626;28;20137;-85
2022/01/10 11:57:00;;;;;;;10.20;3.93;;;5.60;99.90;;;;;;5096223;28;20496;-84
2022/01/10 11:59:36;;;;;;;10.70;3.90;;;5.80;99.90;;;;;;5096604;28;20055;-84
2022/01/10 12:02:12;;;;;;;10.07;3.77;;;5.90;99.90;;;;;;5096405;28;20472;-85
2022/01/10 12:04:43;;;;;;;14.10;3.83;;;6.00;99.90;;;;;;5095797;28;20445;-83
2022/01/10 12:07:23;;;;;;;12.95;3.92;;;6.10;99.90;;;;;;5096678;28;20058;-85
2022/01/10 12:09:49;;;;;;;11.60;3.87;;;6.30;99.90;;;;;;5095849;28;20556;-84
2022/01/10 12:12:17;;;;;;;6.40;3.03;;;6.50;99.90;;;;;;5096406;28;20115;-85
2022/01/10 12:14:44;;;;;;;9.77;4.23;;;6.60;99.90;;;;;;5096059;28;20032;-85
2022/01/10 12:17:12;;;;;;;9.27;4.30;;;6.70;99.90;;;;;;5114694;28;20059;-85
2022/01/10 12:19:39;;;;;;;9.30;4.03;;;6.80;99.90;;;;;;5096298;28;20027;-85
2022/01/10 12:22:06;;;;;;;9.53;3.80;;;6.80;99.90;;;;;;5096411;28;20039;-85
2022/01/10 12:24:36;;;;;;;11.10;3.77;;;6.70;99.90;;;;;;5096142;28;20055;-84
2022/01/10 12:27:04;;;;;;;10.87;4.17;;;6.80;99.90;;;;;;5096850;28;20031;-84
2022/01/10 12:29:30;;;;;;;8.67;3.70;;;6.80;99.90;;;;;;5096434;28;20388;-85
2022/01/10 12:31:58;;;;;;;8.53;4.67;;;6.70;99.90;;;;;;5095830;28;20108;-84
2022/01/10 12:34:24;;;;;;;11.30;4.47;;;6.60;99.90;;;;;;5096492;28;20028;-84
2022/01/10 12:36:50;;;;;;;7.73;3.83;;;6.60;99.90;;;;;;5113924;28;20028;-84
2022/01/10 12:39:21;;;;;;;13.07;3.93;;;6.50;99.90;;;;;;5096127;28;20024;-84
2022/01/10 12:41:48;;;;;;;10.40;3.55;;;6.50;99.90;;;;;;5095854;28;20055;-84
2022/01/10 12:44:14;;;;;;;14.23;4.17;;;6.40;99.90;;;;;;5095838;28;20035;-85
2022/01/10 12:46:40;;;;;;;10.70;3.73;;;6.30;99.90;;;;;;5095608;28;20119;-84
2022/01/10 12:49:08;;;;;;;13.03;3.97;;;6.30;99.90;;;;;;5096434;28;20051;-84
2022/01/10 12:51:43;;;;;;;10.77;4.10;;;6.40;99.90;;;;;;5096040;28;20122;-85
2022/01/10 12:54:18;;;;;;;14.47;4.13;;;6.40;99.90;;;;;;5099923;28;20118;-84
2022/01/10 12:56:47;;;;;;;11.13;4.13;;;6.60;99.90;;;;;;5099591;28;20116;-82
2022/01/10 12:59:15;;;;;;;10.33;3.70;;;6.60;99.90;;;;;;5100038;28;20114;-84
2022/01/10 13:01:43;;;;;;;10.87;4.17;;;6.90;99.90;;;;;;5099425;28;20126;-83